Time;durP1;ratioP1;P1;durP2;ratioP2;P2;SDS_P1;SDS_P2;PMS_P1;PMS_P2;Temp;Humidity;BMP_temperature;BMP_pressure;BME280_temperature;BME280_humidity;BME280_pressure;Samples;Min_cycle;Max_cycle;Signal;HPM_P1;HPM_P2
2023/04/01 00:01:24;;;;;;;35.80;21.00;;;;;;;;;;4993431;28;20129;-77
2023/04/01 00:03:49;;;;;;;31.90;20.13;;;;;;;;;;4995870;28;20053;-77
2023/04/01 00:06:16;;;;;;;31.83;20.92;;;;;;;;;;4996692;28;20041;-76
2023/04/01 00:08:41;;;;;;;35.40;20.85;;;;;;;;;;4975457;28;20026;-77
2023/04/01 00:11:07;;;;;;;31.60;19.35;;;;;;;;;;4994762;28;20057;-77
2023/04/01 00:13:32;;;;;;;32.10;20.17;;;;;;;;;;4989670;28;20485;-77
2023/04/01 00:15:58;;;;;;;34.10;22.20;;;;;;;;;;4991775;28;20041;-76
2023/04/01 00:18:23;;;;;;;31.63;20.17;;;;;;;;;;4990850;28;20037;-77
2023/04/01 00:20:50;;;;;;;29.92;19.60;;;;;;;;;;4997186;28;20042;-77
2023/04/01 00:23:15;;;;;;;34.78;22.00;;;;;;;;;;4994590;28;20026;-78
2023/04/01 00:25:41;;;;;;;33.13;21.02;;;;;;;;;;4979348;28;20045;-77
2023/04/01 00:28:06;;;;;;;37.38;22.88;;;;;;;;;;4993526;28;20044;-78
2023/04/01 00:30:32;;;;;;;38.67;22.63;;;;;;;;;;4996883;28;20406;-77
2023/04/01 00:32:57;;;;;;;38.78;22.63;;;;;;;;;;4994245;28;20057;-76
2023/04/01 00:35:23;;;;;;;37.05;23.17;;;;;;;;;;4993631;28;20145;-77
2023/04/01 00:37:49;;;;;;;39.15;22.85;;;;;;;;;;4995121;28;20489;-77
2023/04/01 00:40:29;;;;;;;35.53;21.42;;;;;;;;;;4991803;28;20044;-77
2023/04/01 00:42:55;;;;;;;33.83;21.20;;;;;;;;;;4990287;28;20541;-76
2023/04/01 00:45:30;;;;;;;36.45;20.25;;;;;;;;;;4990758;28;20036;-77
2023/04/01 00:47:56;;;;;;;32.92;19.70;;;;;;;;;;4969799;28;20042;-77
2023/04/01 00:50:22;;;;;;;31.38;19.13;;;;;;;;;;4985406;28;20081;-77
2023/04/01 00:52:48;;;;;;;32.58;20.55;;;;;;;;;;4990384;28;20038;-77
2023/04/01 00:55:13;;;;;;;36.78;20.67;;;;;;;;;;4990363;28;20389;-77
2023/04/01 00:57:39;;;;;;;36.90;22.70;;;;;;;;;;4989745;28;20042;-76
2023/04/01 01:00:07;;;;;;;32.50;19.85;;;;;;;;;;5002049;28;20121;-77
2023/04/01 01:02:32;;;;;;;35.15;21.38;;;;;;;;;;4985757;28;20035;-76
2023/04/01 01:04:58;;;;;;;36.15;20.65;;;;;;;;;;4971056;28;20037;-77
2023/04/01 01:07:50;;;;;;;33.35;20.98;;;;;;;;;;4989446;28;20409;-77
2023/04/01 01:10:15;;;;;;;37.45;21.63;;;;;;;;;;4963415;28;20661;-77
2023/04/01 01:13:13;;;;;;;33.50;21.15;;;;;;;;;;4991494;28;20026;-77
2023/04/01 01:16:11;;;;;;;35.78;22.45;;;;;;;;;;4966217;28;20473;-77
2023/04/01 01:18:44;;;;;;;38.58;21.70;;;;;;;;;;4981713;28;20070;-77
2023/04/01 01:21:20;;;;;;;41.28;21.75;;;;;;;;;;4977869;28;20038;-77
2023/04/01 01:24:05;;;;;;;35.05;20.67;;;;;;;;;;4995392;28;20041;-77
2023/04/01 01:26:49;;;;;;;36.90;22.77;;;;;;;;;;4993766;28;20046;-77
2023/04/01 01:29:33;;;;;;;35.53;21.13;;;;;;;;;;4997437;28;20569;-77
2023/04/01 01:32:03;;;;;;;38.47;22.02;;;;;;;;;;4994098;28;20506;-77
2023/04/01 01:34:30;;;;;;;34.97;21.20;;;;;;;;;;4980857;28;20096;-77
2023/04/01 01:36:57;;;;;;;37.10;22.33;;;;;;;;;;4993806;28;20113;-78
2023/04/01 01:39:27;;;;;;;34.60;21.55;;;;;;;;;;4961096;28;20545;-76
2023/04/01 01:41:53;;;;;;;37.13;23.40;;;;;;;;;;4993545;28;20528;-76
2023/04/01 01:44:19;;;;;;;33.97;21.48;;;;;;;;;;4978030;28;20053;-76
2023/04/01 01:46:45;;;;;;;37.63;21.38;;;;;;;;;;4973990;28;20046;-76
2023/04/01 01:49:10;;;;;;;38.35;23.35;;;;;;;;;;4971359;28;20170;-77
2023/04/01 01:51:36;;;;;;;38.70;21.33;;;;;;;;;;4993321;28;20053;-76
2023/04/01 01:54:04;;;;;;;37.13;21.50;;;;;;;;;;4992961;28;20037;-77
2023/04/01 01:56:31;;;;;;;34.80;20.25;;;;;;;;;;4980115;28;20046;-76
2023/04/01 01:59:00;;;;;;;35.67;21.40;;;;;;;;;;4992777;28;20401;-77
2023/04/01 02:01:26;;;;;;;35.78;20.50;;;;;;;;;;4977559;28;20039;-77
2023/04/01 02:03:53;;;;;;;37.00;21.70;;;;;;;;;;4977198;28;20485;-77
2023/04/01 02:06:20;;;;;;;32.60;19.90;;;;;;;;;;4993150;28;20049;-76
2023/04/01 02:08:49;;;;;;;37.28;20.73;;;;;;;;;;4976373;28;20145;-77
2023/04/01 02:11:21;;;;;;;34.80;21.08;;;;;;;;;;4975752;28;20058;-76
2023/04/01 02:13:49;;;;;;;35.40;20.65;;;;;;;;;;4977279;28;20405;-77
2023/04/01 02:16:22;;;;;;;36.85;21.33;;;;;;;;;;4976775;28;20018;-77
2023/04/01 02:18:48;;;;;;;38.90;21.25;;;;;;;;;;4981394;28;20037;-77
2023/04/01 02:21:14;;;;;;;35.97;20.80;;;;;;;;;;4980046;28;20037;-77
2023/04/01 02:23:40;;;;;;;32.88;20.63;;;;;;;;;;4999901;28;20022;-76
2023/04/01 02:26:06;;;;;;;35.92;20.45;;;;;;;;;;4981989;28;20077;-77
2023/04/01 02:28:31;;;;;;;40.08;21.15;;;;;;;;;;5001970;28;20076;-77
2023/04/01 02:30:57;;;;;;;40.95;22.45;;;;;;;;;;4992174;28;20045;-76
2023/04/01 02:33:23;;;;;;;38.70;22.10;;;;;;;;;;5002297;28;20509;-77
2023/04/01 02:35:49;;;;;;;37.25;20.95;;;;;;;;;;4982171;28;20093;-76
2023/04/01 02:38:15;;;;;;;42.40;22.23;;;;;;;;;;5003032;28;20030;-77
2023/04/01 02:40:46;;;;;;;41.85;23.15;;;;;;;;;;4982176;28;20038;-76
2023/04/01 02:43:11;;;;;;;37.15;21.33;;;;;;;;;;5003064;28;20523;-76
2023/04/01 02:45:36;;;;;;;42.20;23.40;;;;;;;;;;4997922;28;20121;-77
2023/04/01 02:48:02;;;;;;;38.25;22.80;;;;;;;;;;5003884;28;20452;-76
2023/04/01 02:50:28;;;;;;;42.42;22.95;;;;;;;;;;5008368;28;20069;-77
2023/04/01 02:52:53;;;;;;;43.88;23.00;;;;;;;;;;5002411;28;20022;-76
2023/04/01 02:55:18;;;;;;;42.45;23.45;;;;;;;;;;4992051;28;20034;-77
2023/04/01 02:57:44;;;;;;;39.85;22.38;;;;;;;;;;4998793;28;20038;-76
2023/04/01 03:00:11;;;;;;;43.17;22.88;;;;;;;;;;4998966;28;20042;-77
2023/04/01 03:02:37;;;;;;;46.50;23.50;;;;;;;;;;5004942;28;20026;-78
2023/04/01 03:05:03;;;;;;;45.00;24.27;;;;;;;;;;4999616;28;20042;-77
2023/04/01 03:07:28;;;;;;;43.25;23.65;;;;;;;;;;4997100;28;20029;-76
2023/04/01 03:09:54;;;;;;;47.72;24.25;;;;;;;;;;5000426;28;20030;-77
2023/04/01 03:12:20;;;;;;;43.38;24.50;;;;;;;;;;4980315;28;20136;-76
2023/04/01 03:14:49;;;;;;;37.30;21.73;;;;;;;;;;4995253;28;20129;-77
2023/04/01 03:17:15;;;;;;;38.15;22.90;;;;;;;;;;4996331;28;20429;-76
2023/04/01 03:19:40;;;;;;;35.70;21.55;;;;;;;;;;4996201;28;20038;-77
2023/04/01 03:22:09;;;;;;;41.35;22.50;;;;;;;;;;5001240;28;20045;-77
2023/04/01 03:24:35;;;;;;;44.70;23.67;;;;;;;;;;4980451;28;20036;-76
2023/04/01 03:27:01;;;;;;;40.25;23.02;;;;;;;;;;5002520;28;20128;-77
2023/04/01 03:29:26;;;;;;;42.80;23.27;;;;;;;;;;4996502;28;20553;-77
2023/04/01 03:31:52;;;;;;;47.63;25.02;;;;;;;;;;4996168;28;20034;-77
2023/04/01 03:34:17;;;;;;;37.42;21.30;;;;;;;;;;4997526;28;20054;-77
2023/04/01 03:36:43;;;;;;;43.40;22.88;;;;;;;;;;5000394;28;20029;-77
2023/04/01 03:39:08;;;;;;;93.72;26.27;;;;;;;;;;4975352;28;20030;-76
2023/04/01 03:41:40;;;;;;;171.43;28.90;;;;;;;;;;4991472;28;20039;-76
2023/04/01 03:44:06;;;;;;;442.15;37.65;;;;;;;;;;4971880;28;20041;-77
2023/04/01 03:46:31;;;;;;;519.20;38.90;;;;;;;;;;4996274;28;20057;-77
2023/04/01 03:48:57;;;;;;;792.83;51.15;;;;;;;;;;4996701;28;20038;-77
2023/04/01 03:51:22;;;;;;;769.40;45.15;;;;;;;;;;4991447;28;20053;-76
2023/04/01 03:53:48;;;;;;;1029.93;54.53;;;;;;;;;;5000969;28;20030;-77
2023/04/01 03:56:14;;;;;;;1180.82;58.45;;;;;;;;;;4992012;28;20022;-77
2023/04/01 03:58:40;;;;;;;1018.40;57.63;;;;;;;;;;4996645;28;20034;-77
2023/04/01 04:01:14;;;;;;;777.63;42.10;;;;;;;;;;4991105;28;20120;-77
2023/04/01 04:03:39;;;;;;;714.60;39.47;;;;;;;;;;4997059;28;20034;-77
2023/04/01 04:06:05;;;;;;;614.53;48.53;;;;;;;;;;4985781;28;20113;-76
2023/04/01 04:08:31;;;;;;;592.92;34.97;;;;;;;;;;4997048;28;20050;-76
2023/04/01 04:10:56;;;;;;;400.95;33.75;;;;;;;;;;4999943;28;20033;-77
2023/04/01 04:13:22;;;;;;;685.25;43.17;;;;;;;;;;4977470;28;20442;-76
2023/04/01 04:15:54;;;;;;;604.67;38.72;;;;;;;;;;4994768;28;20022;-77
2023/04/01 04:18:20;;;;;;;555.35;35.47;;;;;;;;;;4994393;28;20096;-77
2023/04/01 04:20:48;;;;;;;569.70;34.90;;;;;;;;;;4975774;28;20030;-77
2023/04/01 04:23:14;;;;;;;551.70;36.05;;;;;;;;;;4974833;28;20045;-76
2023/04/01 04:25:40;;;;;;;544.42;37.95;;;;;;;;;;4990609;28;20030;-76
2023/04/01 04:28:05;;;;;;;366.55;29.05;;;;;;;;;;4990234;28;20049;-77
2023/04/01 04:30:31;;;;;;;276.10;27.50;;;;;;;;;;4990671;28;20084;-77
2023/04/01 04:32:57;;;;;;;156.02;23.30;;;;;;;;;;4990292;28;20050;-77
2023/04/01 04:35:22;;;;;;;211.82;23.13;;;;;;;;;;4990502;28;20038;-77
2023/04/01 04:37:48;;;;;;;111.65;20.33;;;;;;;;;;4974066;28;20031;-78
2023/04/01 04:40:14;;;;;;;109.47;19.75;;;;;;;;;;4974290;28;20123;-78
2023/04/01 04:42:41;;;;;;;346.67;25.27;;;;;;;;;;4990646;28;20522;-77
2023/04/01 04:45:10;;;;;;;512.90;32.38;;;;;;;;;;4971418;28;20500;-77
2023/04/01 04:47:39;;;;;;;334.35;28.48;;;;;;;;;;4987580;28;20116;-77
2023/04/01 04:50:05;;;;;;;651.45;43.53;;;;;;;;;;4971012;28;20122;-76
2023/04/01 04:52:31;;;;;;;369.85;31.80;;;;;;;;;;4986270;28;20041;-76
2023/04/01 04:54:56;;;;;;;303.92;27.58;;;;;;;;;;4973530;28;20031;-77
2023/04/01 04:57:22;;;;;;;64.47;21.58;;;;;;;;;;4990266;28;20117;-78
2023/04/01 04:59:53;;;;;;;74.75;19.55;;;;;;;;;;4991672;28;20041;-77
2023/04/01 05:02:29;;;;;;;33.78;16.15;;;;;;;;;;4991571;28;20128;-77
2023/04/01 05:04:55;;;;;;;30.92;17.38;;;;;;;;;;4974958;28;20046;-76
2023/04/01 05:07:20;;;;;;;34.22;18.58;;;;;;;;;;4971180;28;20049;-76
2023/04/01 05:09:46;;;;;;;31.35;16.67;;;;;;;;;;4990192;28;20070;-76
2023/04/01 05:12:12;;;;;;;;;;;;;;;;;;4993634;28;20022;-77
2023/04/01 05:14:55;;;;;;;30.67;18.52;;;;;;;;;;4976252;28;19914;-76
2023/04/01 05:17:20;;;;;;;35.38;19.20;;;;;;;;;;4994044;28;20041;-76
2023/04/01 05:19:46;;;;;;;44.25;22.05;;;;;;;;;;4991571;28;20112;-76
2023/04/01 05:22:11;;;;;;;39.47;20.42;;;;;;;;;;4973614;28;20444;-76
2023/04/01 05:24:37;;;;;;;34.67;19.42;;;;;;;;;;4974284;28;20124;-76
2023/04/01 05:27:02;;;;;;;38.13;19.95;;;;;;;;;;4989957;28;20034;-76
2023/04/01 05:29:28;;;;;;;33.38;19.00;;;;;;;;;;4971523;28;20027;-76
2023/04/01 05:32:02;;;;;;;32.08;18.33;;;;;;;;;;4987085;28;20486;-76
2023/04/01 05:34:27;;;;;;;28.75;17.13;;;;;;;;;;4990461;28;20058;-76
2023/04/01 05:36:53;;;;;;;25.33;15.73;;;;;;;;;;4990624;28;20054;-75
2023/04/01 05:39:18;;;;;;;25.27;16.38;;;;;;;;;;4990177;28;20057;-75
2023/04/01 05:41:45;;;;;;;23.65;15.55;;;;;;;;;;4995328;28;20037;-78
2023/04/01 05:44:11;;;;;;;21.77;14.57;;;;;;;;;;4996647;28;20034;-77
2023/04/01 05:46:36;;;;;;;25.88;16.17;;;;;;;;;;4999695;28;20044;-78
2023/04/01 05:49:09;;;;;;;20.75;14.00;;;;;;;;;;4997389;28;20034;-77
2023/04/01 05:51:35;;;;;;;;;;;;;;;;;;4992743;28;20031;-78
2023/04/01 05:54:00;;;;;;;21.80;14.13;;;;;;;;;;4991573;28;19949;-77
2023/04/01 05:56:26;;;;;;;23.88;15.32;;;;;;;;;;5002461;28;20493;-77
2023/04/01 05:58:53;;;;;;;23.90;15.68;;;;;;;;;;4998297;28;20062;-77
2023/04/01 06:01:20;;;;;;;26.33;18.10;;;;;;;;;;5002149;28;20062;-77
2023/04/01 06:03:46;;;;;;;;;;;;;;;;;;4981709;28;20022;-77
2023/04/01 06:06:14;;;;;;;24.63;15.90;;;;;;;;;;5024877;28;19963;-77
2023/04/01 06:08:39;;;;;;;26.42;17.10;;;;;;;;;;4975069;28;20096;-77
2023/04/01 06:11:14;;;;;;;28.40;18.60;;;;;;;;;;4987074;28;20039;-77
2023/04/01 06:14:00;;;;;;;27.17;17.63;;;;;;;;;;4978700;28;20034;-77
2023/04/01 06:16:44;;;;;;;24.73;16.33;;;;;;;;;;4986421;28;20034;-77
2023/04/01 06:19:44;;;;;;;27.10;17.27;;;;;;;;;;4988595;28;20097;-77
2023/04/01 06:22:29;;;;;;;25.52;15.45;;;;;;;;;;4998360;28;20116;-77
2023/04/01 06:25:17;;;;;;;22.80;15.02;;;;;;;;;;4994341;28;20088;-77
2023/04/01 06:27:49;;;;;;;17.58;12.80;;;;;;;;;;4992910;28;20437;-77
2023/04/01 06:30:24;;;;;;;16.52;12.00;;;;;;;;;;4993174;28;20177;-77
2023/04/01 06:32:53;;;;;;;17.42;12.07;;;;;;;;;;4991383;28;20497;-76
2023/04/01 06:35:37;;;;;;;17.20;11.95;;;;;;;;;;4976666;28;20555;-76
2023/04/01 06:38:18;;;;;;;18.00;11.73;;;;;;;;;;4993207;28;20401;-76
2023/04/01 06:40:48;;;;;;;14.35;10.80;;;;;;;;;;4971512;28;20559;-77
2023/04/01 06:43:32;;;;;;;15.65;11.15;;;;;;;;;;4994721;28;20122;-77
2023/04/01 06:46:17;;;;;;;13.35;9.93;;;;;;;;;;4993816;28;20126;-77
2023/04/01 06:49:26;;;;;;;15.13;10.07;;;;;;;;;;4994928;28;20048;-77
2023/04/01 06:52:38;;;;;;;13.65;10.23;;;;;;;;;;4975417;28;20039;-77
2023/04/01 06:55:37;;;;;;;13.00;10.43;;;;;;;;;;4988519;28;20076;-77
2023/04/01 06:58:42;;;;;;;12.77;9.65;;;;;;;;;;4986631;28;20085;-77
2023/04/01 07:01:19;;;;;;;10.50;8.40;;;;;;;;;;4958135;28;20035;-77
2023/04/01 07:03:47;;;;;;;13.45;10.63;;;;;;;;;;4982147;28;20043;-77
2023/04/01 07:06:22;;;;;;;15.27;11.45;;;;;;;;;;4992693;28;20497;-78
2023/04/01 07:08:53;;;;;;;15.55;10.25;;;;;;;;;;4978318;28;20456;-77
2023/04/01 07:11:25;;;;;;;13.90;8.63;;;;;;;;;;4975310;28;20059;-76
2023/04/01 07:14:10;;;;;;;12.10;8.40;;;;;;;;;;4992473;28;20057;-78
2023/04/01 07:16:49;;;;;;;11.30;8.77;;;;;;;;;;4993621;28;20034;-78
2023/04/01 07:19:22;;;;;;;11.70;8.13;;;;;;;;;;4993093;28;20132;-78
2023/04/01 07:22:25;;;;;;;14.07;8.07;;;;;;;;;;4995138;28;20037;-77
2023/04/01 07:25:03;;;;;;;8.38;6.18;;;;;;;;;;4995535;28;20497;-77
2023/04/01 07:27:28;;;;;;;10.82;7.10;;;;;;;;;;4978617;28;20038;-77
2023/04/01 07:29:54;;;;;;;;;;;;;;;;;;4996972;28;20500;-77
2023/04/01 07:32:26;;;;;;;16.80;6.18;;;;;;;;;;5023263;28;19918;-76
2023/04/01 07:35:13;;;;;;;6.70;5.30;;;;;;;;;;4998215;28;20040;-77
2023/04/01 07:37:39;;;;;;;8.98;5.65;;;;;;;;;;4996307;28;20117;-76
2023/04/01 07:40:17;;;;;;;8.95;5.38;;;;;;;;;;4999424;28;20073;-77
2023/04/01 07:43:01;;;;;;;11.10;5.38;;;;;;;;;;4997757;28;20030;-78
2023/04/01 07:45:29;;;;;;;16.27;6.05;;;;;;;;;;4995479;28;20497;-77
2023/04/01 07:47:56;;;;;;;17.77;5.65;;;;;;;;;;4982427;28;21033;-77
2023/04/01 07:50:26;;;;;;;17.27;6.00;;;;;;;;;;4994915;28;20133;-78
2023/04/01 07:52:51;;;;;;;14.05;5.68;;;;;;;;;;4981855;28;20091;-78
2023/04/01 07:55:24;;;;;;;13.63;5.65;;;;;;;;;;4994819;28;20033;-77
2023/04/01 07:57:50;;;;;;;10.00;5.43;;;;;;;;;;4990378;28;20552;-77
2023/04/01 08:00:16;;;;;;;12.10;5.80;;;;;;;;;;4977861;28;20034;-77
2023/04/01 08:03:11;;;;;;;10.55;5.63;;;;;;;;;;4984766;28;20046;-77
2023/04/01 08:05:37;;;;;;;14.52;5.88;;;;;;;;;;4979736;28;20042;-77
2023/04/01 08:08:10;;;;;;;11.35;5.63;;;;;;;;;;4994365;28;20433;-77
2023/04/01 08:10:59;;;;;;;8.10;5.43;;;;;;;;;;4977715;28;20445;-76
2023/04/01 08:13:53;;;;;;;9.75;5.85;;;;;;;;;;4990719;28;20096;-78
2023/04/01 08:16:55;;;;;;;9.00;5.95;;;;;;;;;;4994483;28;20579;-76
2023/04/01 08:19:31;;;;;;;9.50;5.40;;;;;;;;;;4993231;28;20038;-78
2023/04/01 08:21:58;;;;;;;10.55;5.78;;;;;;;;;;4978275;28;20033;-77
2023/04/01 08:24:35;;;;;;;10.35;5.35;;;;;;;;;;4976411;28;20029;-78
2023/04/01 08:27:01;;;;;;;23.08;10.68;;;;;;;;;;4978081;28;20084;-78
2023/04/01 08:29:35;;;;;;;18.40;11.00;;;;;;;;;;4976699;28;20030;-78
2023/04/01 08:32:17;;;;;;;27.70;14.55;;;;;;;;;;4988317;28;20057;-77
2023/04/01 08:34:44;;;;;;;40.55;21.92;;;;;;;;;;4994222;28;20057;-79
2023/04/01 08:37:22;;;;;;;18.85;10.25;;;;;;;;;;4977913;28;20548;-78
2023/04/01 08:39:55;;;;;;;18.73;11.25;;;;;;;;;;4978007;28;20520;-78
2023/04/01 08:42:25;;;;;;;18.23;10.27;;;;;;;;;;4975888;28;20040;-77
2023/04/01 08:45:03;;;;;;;23.42;10.35;;;;;;;;;;4991646;28;20026;-76
2023/04/01 08:47:33;;;;;;;30.55;16.95;;;;;;;;;;4993504;28;20089;-77
2023/04/01 08:50:06;;;;;;;31.15;14.68;;;;;;;;;;4978271;28;20042;-77
2023/04/01 08:53:11;;;;;;;11.55;7.15;;;;;;;;;;4995070;28;20039;-76
2023/04/01 08:55:42;;;;;;;13.95;6.75;;;;;;;;;;4992885;28;20034;-76
2023/04/01 08:58:18;;;;;;;11.85;6.80;;;;;;;;;;4992682;28;20128;-77
2023/04/01 09:01:17;;;;;;;11.90;6.68;;;;;;;;;;4992526;28;20057;-79
2023/04/01 09:04:06;;;;;;;10.85;7.70;;;;;;;;;;4993141;28;20046;-78
2023/04/01 09:06:40;;;;;;;12.23;7.53;;;;;;;;;;4997745;28;20042;-78
2023/04/01 09:09:06;;;;;;;10.95;7.07;;;;;;;;;;4980390;28;20030;-77
2023/04/01 09:11:39;;;;;;;11.07;7.93;;;;;;;;;;4989763;28;20023;-77
2023/04/01 09:14:25;;;;;;;10.90;7.57;;;;;;;;;;4990140;28;20049;-77
2023/04/01 09:17:14;;;;;;;12.30;8.35;;;;;;;;;;4990001;28;20031;-76
2023/04/01 09:20:06;;;;;;;12.82;8.20;;;;;;;;;;4974038;28;20070;-79
2023/04/01 09:22:35;;;;;;;13.45;8.80;;;;;;;;;;4994228;28;20529;-77
2023/04/01 09:25:19;;;;;;;14.15;9.00;;;;;;;;;;4973272;28;20383;-76
2023/04/01 09:27:52;;;;;;;12.55;8.55;;;;;;;;;;4991726;28;20038;-78
2023/04/01 09:30:36;;;;;;;14.18;8.45;;;;;;;;;;4985377;28;20058;-78
2023/04/01 09:33:02;;;;;;;12.98;8.27;;;;;;;;;;4973607;28;20129;-79
2023/04/01 09:35:28;;;;;;;;;;;;;;;;;;4990726;28;20038;-77
2023/04/01 09:37:58;;;;;;;22.25;11.63;;;;;;;;;;4990128;28;20377;-77
2023/04/01 09:40:37;;;;;;;12.32;8.60;;;;;;;;;;4993134;28;20128;-76
2023/04/01 09:43:35;;;;;;;11.75;8.15;;;;;;;;;;4975366;28;20050;-77
2023/04/01 09:46:21;;;;;;;12.00;8.15;;;;;;;;;;4965689;28;20039;-78
2023/04/01 09:49:00;;;;;;;12.07;8.60;;;;;;;;;;4991279;28;20053;-76
2023/04/01 09:51:38;;;;;;;16.63;10.73;;;;;;;;;;5005343;28;20041;-79
2023/04/01 09:54:11;;;;;;;15.95;10.20;;;;;;;;;;4961078;28;20041;-79
2023/04/01 09:56:45;;;;;;;19.73;10.60;;;;;;;;;;4993191;28;20098;-77
2023/04/01 09:59:24;;;;;;;18.63;9.77;;;;;;;;;;4994217;28;20560;-77
2023/04/01 10:02:14;;;;;;;12.77;8.80;;;;;;;;;;4994346;28;20056;-78
2023/04/01 10:04:46;;;;;;;23.65;10.45;;;;;;;;;;4994014;28;20477;-78
2023/04/01 10:07:12;;;;;;;15.25;8.75;;;;;;;;;;4995248;28;20125;-78
2023/04/01 10:09:53;;;;;;;12.75;8.45;;;;;;;;;;4977751;28;20026;-79
2023/04/01 10:12:37;;;;;;;12.40;8.73;;;;;;;;;;4999800;28;20029;-78
2023/04/01 10:15:21;;;;;;;13.13;7.90;;;;;;;;;;4995451;28;20039;-76
2023/04/01 10:17:53;;;;;;;11.25;7.60;;;;;;;;;;5005317;28;20046;-78
2023/04/01 10:20:37;;;;;;;11.68;8.32;;;;;;;;;;4996160;28;20517;-77
2023/04/01 10:23:23;;;;;;;14.50;9.13;;;;;;;;;;4996650;28;20042;-77
2023/04/01 10:26:01;;;;;;;13.73;8.82;;;;;;;;;;4988125;28;20050;-78
2023/04/01 10:28:38;;;;;;;10.73;7.65;;;;;;;;;;4999679;28;20093;-77
2023/04/01 10:31:24;;;;;;;13.05;7.32;;;;;;;;;;4994704;28;20072;-76
2023/04/01 10:33:53;;;;;;;16.85;9.15;;;;;;;;;;4997336;28;20094;-78
2023/04/01 10:36:37;;;;;;;15.40;7.95;;;;;;;;;;4994776;28;20053;-76
2023/04/01 10:39:22;;;;;;;16.63;8.95;;;;;;;;;;4985006;28;20034;-78
2023/04/01 10:42:08;;;;;;;10.63;7.45;;;;;;;;;;4990249;28;20035;-78
2023/04/01 10:44:48;;;;;;;16.38;8.15;;;;;;;;;;4997703;28;20523;-77
2023/04/01 10:47:37;;;;;;;15.63;7.85;;;;;;;;;;4983899;28;20128;-76
2023/04/01 10:50:11;;;;;;;11.85;7.43;;;;;;;;;;4992803;28;20137;-78
2023/04/01 10:53:00;;;;;;;13.95;7.10;;;;;;;;;;4992398;28;20053;-76
2023/04/01 10:56:01;;;;;;;10.98;6.57;;;;;;;;;;4978118;28;20123;-76
2023/04/01 10:59:04;;;;;;;10.35;6.78;;;;;;;;;;4988869;28;20772;-77
2023/04/01 11:01:58;;;;;;;10.77;6.88;;;;;;;;;;4987516;28;20100;-76
2023/04/01 11:05:00;;;;;;;12.10;7.07;;;;;;;;;;4992604;28;20042;-78
2023/04/01 11:08:05;;;;;;;10.43;6.78;;;;;;;;;;4989421;28;20112;-77
2023/04/01 11:10:46;;;;;;;12.07;6.95;;;;;;;;;;4994541;28;20532;-77
2023/04/01 11:13:24;;;;;;;11.95;7.32;;;;;;;;;;4978905;28;20034;-77
2023/04/01 11:15:52;;;;;;;12.85;8.13;;;;;;;;;;4992852;28;20034;-76
2023/04/01 11:18:24;;;;;;;9.00;7.03;;;;;;;;;;4992028;28;20014;-78
2023/04/01 11:20:59;;;;;;;11.07;7.97;;;;;;;;;;4991769;28;20050;-78
2023/04/01 11:23:28;;;;;;;10.57;7.22;;;;;;;;;;4993056;28;20093;-77
2023/04/01 11:26:00;;;;;;;10.98;8.35;;;;;;;;;;4992120;28;20048;-77
2023/04/01 11:29:11;;;;;;;11.20;8.95;;;;;;;;;;4990337;28;20048;-77
2023/04/01 11:31:37;;;;;;;14.13;9.73;;;;;;;;;;4986113;28;20506;-77
2023/04/01 11:34:06;;;;;;;12.38;8.90;;;;;;;;;;4991290;28;20149;-77
2023/04/01 11:36:42;;;;;;;11.90;8.98;;;;;;;;;;4991757;28;20030;-77
2023/04/01 11:39:30;;;;;;;11.20;8.70;;;;;;;;;;4976358;28;20416;-78
2023/04/01 11:42:07;;;;;;;10.48;8.02;;;;;;;;;;4991488;28;20041;-76
2023/04/01 11:45:01;;;;;;;12.32;8.10;;;;;;;;;;4972254;28;20413;-78
2023/04/01 11:47:56;;;;;;;10.95;8.02;;;;;;;;;;4975603;28;20524;-78
2023/04/01 11:50:41;;;;;;;15.00;10.77;;;;;;;;;;4983871;28;20517;-77
2023/04/01 11:53:19;;;;;;;15.60;11.18;;;;;;;;;;5016952;28;20413;-77
2023/04/01 11:56:03;;;;;;;14.82;11.52;;;;;;;;;;4993581;28;21139;-77
2023/04/01 11:58:48;;;;;;;14.15;9.95;;;;;;;;;;4992790;28;20030;-76
2023/04/01 12:01:16;;;;;;;10.65;8.70;;;;;;;;;;4989229;28;20034;-77
2023/04/01 12:03:59;;;;;;;12.00;8.82;;;;;;;;;;4992523;28;20061;-78
2023/04/01 12:06:48;;;;;;;13.35;9.40;;;;;;;;;;4998798;28;20057;-76
2023/04/01 12:09:15;;;;;;;14.93;9.85;;;;;;;;;;4986792;28;20147;-77
2023/04/01 12:11:59;;;;;;;12.45;8.77;;;;;;;;;;4995328;28;20031;-75
2023/04/01 12:14:30;;;;;;;14.75;9.23;;;;;;;;;;4994015;28;20161;-76
2023/04/01 12:17:08;;;;;;;14.93;9.52;;;;;;;;;;4995547;28;20485;-76
2023/04/01 12:19:52;;;;;;;15.20;10.20;;;;;;;;;;4994515;28;20042;-77
2023/04/01 12:22:18;;;;;;;16.38;11.00;;;;;;;;;;4990218;28;20038;-76
2023/04/01 12:24:53;;;;;;;16.80;11.45;;;;;;;;;;4991597;28;20034;-76
2023/04/01 12:27:28;;;;;;;14.20;10.70;;;;;;;;;;4989759;28;20042;-78
2023/04/01 12:30:02;;;;;;;15.02;9.95;;;;;;;;;;4991910;28;20077;-77
2023/04/01 12:32:34;;;;;;;14.88;9.98;;;;;;;;;;4993059;28;20363;-78
2023/04/01 12:35:02;;;;;;;13.75;9.85;;;;;;;;;;4995607;28;20157;-79
2023/04/01 12:37:46;;;;;;;14.75;10.30;;;;;;;;;;4992043;28;20550;-79
2023/04/01 12:40:25;;;;;;;13.98;10.40;;;;;;;;;;4990269;28;20121;-77
2023/04/01 12:43:09;;;;;;;17.77;12.93;;;;;;;;;;4974047;28;20077;-77
2023/04/01 12:45:35;;;;;;;17.55;12.98;;;;;;;;;;4991892;28;20044;-77
2023/04/01 12:48:01;;;;;;;17.02;12.60;;;;;;;;;;4990292;28;20036;-77
2023/04/01 12:50:45;;;;;;;20.13;14.85;;;;;;;;;;4989837;28;20436;-77
2023/04/01 12:53:33;;;;;;;20.55;14.30;;;;;;;;;;5003647;28;20504;-77
2023/04/01 12:55:59;;;;;;;14.65;10.95;;;;;;;;;;4983531;28;20584;-78
2023/04/01 12:58:30;;;;;;;15.20;11.45;;;;;;;;;;4990505;28;20030;-76
2023/04/01 13:00:56;;;;;;;21.52;15.48;;;;;;;;;;4991432;28;20100;-79
2023/04/01 13:03:27;;;;;;;19.35;14.82;;;;;;;;;;4991554;28;20030;-78
2023/04/01 13:05:55;;;;;;;20.23;13.93;;;;;;;;;;4975712;28;20046;-78
2023/04/01 13:08:27;;;;;;;18.27;13.43;;;;;;;;;;4976181;28;20033;-78
2023/04/01 13:10:56;;;;;;;17.08;13.68;;;;;;;;;;4991606;28;20045;-78
2023/04/01 13:13:44;;;;;;;17.48;12.68;;;;;;;;;;4992647;28;20038;-78
2023/04/01 13:16:15;;;;;;;18.38;13.85;;;;;;;;;;4984444;28;20489;-76
2023/04/01 13:18:55;;;;;;;17.20;12.63;;;;;;;;;;4982305;28;20136;-78
2023/04/01 13:21:31;;;;;;;15.63;11.73;;;;;;;;;;4997903;28;20060;-78
2023/04/01 13:24:16;;;;;;;16.88;12.32;;;;;;;;;;4992335;28;20038;-78
2023/04/01 13:26:47;;;;;;;17.70;12.95;;;;;;;;;;4996826;28;20148;-78
2023/04/01 13:29:32;;;;;;;16.05;12.95;;;;;;;;;;4993614;28;20042;-75
2023/04/01 13:31:57;;;;;;;17.98;13.43;;;;;;;;;;4995858;28;20035;-77
2023/04/01 13:34:32;;;;;;;21.52;14.70;;;;;;;;;;4996728;28;20054;-80
2023/04/01 13:37:02;;;;;;;21.23;14.48;;;;;;;;;;5024350;28;20286;-78
2023/04/01 13:39:27;;;;;;;20.33;14.80;;;;;;;;;;4993503;28;20042;-77
2023/04/01 13:42:13;;;;;;;22.02;15.18;;;;;;;;;;4996766;28;20065;-77
2023/04/01 13:44:43;;;;;;;20.05;15.85;;;;;;;;;;4982934;28;20479;-77
2023/04/01 13:47:11;;;;;;;20.48;15.40;;;;;;;;;;4996186;28;20035;-77
2023/04/01 13:49:37;;;;;;;20.98;14.80;;;;;;;;;;4993061;28;20038;-76
2023/04/01 13:52:08;;;;;;;20.88;14.90;;;;;;;;;;4995072;28;20030;-77
2023/04/01 13:54:49;;;;;;;21.25;15.82;;;;;;;;;;4994879;28;20520;-78
2023/04/01 13:57:33;;;;;;;21.67;15.48;;;;;;;;;;4994925;28;20125;-77
2023/04/01 13:59:58;;;;;;;19.50;14.60;;;;;;;;;;4984816;28;20035;-77
2023/04/01 14:02:36;;;;;;;19.60;14.45;;;;;;;;;;4994872;28;20022;-76
2023/04/01 14:05:02;;;;;;;22.70;16.52;;;;;;;;;;4994556;28;20093;-77
2023/04/01 14:07:45;;;;;;;20.60;14.90;;;;;;;;;;4994448;28;20049;-79
2023/04/01 14:10:43;;;;;;;25.75;17.90;;;;;;;;;;4994024;28;20121;-78
2023/04/01 14:13:27;;;;;;;23.35;17.35;;;;;;;;;;4982749;28;20046;-76
2023/04/01 14:15:52;;;;;;;19.70;14.52;;;;;;;;;;4993779;28;20031;-77
2023/04/01 14:18:33;;;;;;;21.00;15.45;;;;;;;;;;5003282;28;20034;-78
2023/04/01 14:21:05;;;;;;;24.08;16.58;;;;;;;;;;4976374;28;20138;-76
2023/04/01 14:23:31;;;;;;;28.45;19.67;;;;;;;;;;5008885;28;20041;-77
2023/04/01 14:26:12;;;;;;;23.83;17.60;;;;;;;;;;5004943;28;20049;-76
2023/04/01 14:28:45;;;;;;;23.65;16.40;;;;;;;;;;5001640;28;20473;-77
2023/04/01 14:31:23;;;;;;;24.08;16.95;;;;;;;;;;4983175;28;20514;-79
2023/04/01 14:34:22;;;;;;;23.25;15.57;;;;;;;;;;4997954;28;20125;-77
2023/04/01 14:36:50;;;;;;;22.30;16.17;;;;;;;;;;5005524;28;20076;-78
2023/04/01 14:39:34;;;;;;;21.60;17.00;;;;;;;;;;5007392;28;20909;-76
2023/04/01 14:42:23;;;;;;;24.70;18.00;;;;;;;;;;5006053;28;20480;-78
2023/04/01 14:45:09;;;;;;;25.55;17.95;;;;;;;;;;4996854;28;20062;-77
2023/04/01 14:47:44;;;;;;;23.20;17.70;;;;;;;;;;4981246;28;20048;-77
2023/04/01 14:50:12;;;;;;;23.15;17.83;;;;;;;;;;5002505;28;20097;-76
2023/04/01 14:52:42;;;;;;;21.15;14.60;;;;;;;;;;5000942;28;20053;-77
2023/04/01 14:55:28;;;;;;;20.20;14.68;;;;;;;;;;4994324;28;20505;-77
2023/04/01 14:58:09;;;;;;;22.08;15.70;;;;;;;;;;4993265;28;20039;-77
2023/04/01 15:00:53;;;;;;;22.30;15.60;;;;;;;;;;4994141;28;20069;-77